createdAt,value
2019-06-08T00:00:04.794Z,1007.20
2019-06-08T00:01:04.797Z,1007.28
2019-06-08T00:02:04.788Z,1007.33
2019-06-08T00:03:04.799Z,1007.24
2019-06-08T00:04:04.766Z,1007.33
2019-06-08T00:05:04.819Z,1007.21
2019-06-08T00:06:04.735Z,1007.26
2019-06-08T00:07:04.736Z,1007.16
2019-06-08T00:08:04.749Z,1007.29
2019-06-08T00:09:04.703Z,1007.12
2019-06-08T00:10:04.703Z,1007.25
2019-06-08T00:11:04.699Z,1007.28
2019-06-08T00:12:04.665Z,1007.26
2019-06-08T00:13:04.693Z,1007.28
2019-06-08T00:14:04.663Z,1007.13
2019-06-08T00:15:04.650Z,1007.20
2019-06-08T00:16:04.635Z,1007.21
2019-06-08T00:17:04.619Z,1007.18
2019-06-08T00:18:04.634Z,1007.22
2019-06-08T00:19:04.586Z,1007.18
2019-06-08T00:20:04.582Z,1007.20
2019-06-08T00:21:04.599Z,1007.20
2019-06-08T00:22:04.574Z,1007.36
2019-06-08T00:23:04.581Z,1007.21
2019-06-08T00:24:04.552Z,1007.37
2019-06-08T00:25:04.542Z,1007.44
2019-06-08T00:26:04.518Z,1007.34
2019-06-08T00:27:04.528Z,1007.38
2019-06-08T00:28:04.536Z,1007.42
2019-06-08T00:29:04.516Z,1007.42
2019-06-08T00:30:04.467Z,1007.51
2019-06-08T00:31:04.464Z,1007.29
2019-06-08T00:32:04.484Z,1007.18
2019-06-08T00:33:04.490Z,1007.25
2019-06-08T00:34:04.431Z,1007.27
2019-06-08T00:35:04.418Z,1007.31
2019-06-08T00:36:04.406Z,1007.48
2019-06-08T00:37:04.388Z,1007.48
2019-06-08T00:38:04.422Z,1007.54
2019-06-08T00:39:04.366Z,1007.36
2019-06-08T00:40:04.360Z,1007.42
2019-06-08T00:41:04.356Z,1007.41
2019-06-08T00:42:04.332Z,1007.43
2019-06-08T00:43:04.348Z,1007.59
2019-06-08T00:44:04.338Z,1007.63
2019-06-08T00:45:04.318Z,1007.56
2019-06-08T00:46:04.288Z,1007.55
2019-06-08T00:47:04.276Z,1007.49
2019-06-08T00:48:04.300Z,1007.55
2019-06-08T00:49:04.258Z,1007.70
2019-06-08T00:50:04.250Z,1007.74
2019-06-08T00:51:04.244Z,1007.70
2019-06-08T00:52:04.229Z,1007.74
2019-06-08T00:53:04.230Z,1007.76
2019-06-08T00:54:04.198Z,1007.78
2019-06-08T00:55:04.189Z,1007.75
2019-06-08T00:56:04.184Z,1007.77
2019-06-08T00:57:04.170Z,1007.92
2019-06-08T00:58:04.209Z,1007.84
2019-06-08T00:59:04.147Z,1007.95
2019-06-08T01:00:10.173Z,1007.87
2019-06-08T01:01:05.121Z,1007.92
2019-06-08T01:02:04.106Z,1007.97
2019-06-08T01:03:04.100Z,1007.88
2019-06-08T01:04:04.105Z,1007.85
2019-06-08T01:05:04.076Z,1007.87
2019-06-08T01:06:04.079Z,1007.92
2019-06-08T01:07:04.080Z,1008.01
2019-06-08T01:08:04.249Z,1008.10
2019-06-08T01:09:04.051Z,1008.04
2019-06-08T01:10:04.043Z,1007.99
2019-06-08T01:11:04.012Z,1008.11
2019-06-08T01:12:04.005Z,1008.09
2019-06-08T01:13:04.006Z,1008.06
2019-06-08T01:14:04.001Z,1008.09
2019-06-08T01:15:03.988Z,1008.23
2019-06-08T01:16:03.961Z,1008.14
2019-06-08T01:17:03.961Z,1008.14
2019-06-08T01:18:04.347Z,1008.17
2019-06-08T01:19:03.943Z,1008.29
2019-06-08T01:20:03.916Z,1008.20
2019-06-08T01:21:03.897Z,1008.22
2019-06-08T01:22:03.921Z,1008.24
2019-06-08T01:23:03.882Z,1008.26
2019-06-08T01:24:03.880Z,1008.27
2019-06-08T01:25:03.867Z,1008.35
2019-06-08T01:26:03.843Z,1008.34
2019-06-08T01:27:03.827Z,1008.39
2019-06-08T01:28:03.830Z,1008.38
2019-06-08T01:29:03.840Z,1008.27
2019-06-08T01:30:03.806Z,1008.21
2019-06-08T01:31:03.785Z,1008.29
2019-06-08T01:32:03.776Z,1008.30
2019-06-08T01:33:03.800Z,1008.27
2019-06-08T01:34:03.776Z,1008.26
2019-06-08T01:35:03.825Z,1008.35
2019-06-08T01:36:03.739Z,1008.25
2019-06-08T01:37:03.724Z,1008.32
2019-06-08T01:38:03.706Z,1008.19
2019-06-08T01:39:03.702Z,1008.25
2019-06-08T01:40:03.711Z,1008.25
2019-06-08T01:41:03.675Z,1008.27
2019-06-08T01:42:03.675Z,1008.34
2019-06-08T01:43:03.653Z,1008.40
2019-06-08T01:44:03.638Z,1008.43
2019-06-08T01:45:03.825Z,1008.46
2019-06-08T01:46:03.618Z,1008.57
2019-06-08T01:47:03.614Z,1008.59
2019-06-08T01:48:18.737Z,1008.54
2019-06-08T01:49:04.585Z,1008.63
2019-06-08T01:50:03.592Z,1008.67
2019-06-08T01:51:03.664Z,1008.59
2019-06-08T01:52:03.552Z,1008.77
2019-06-08T01:53:04.422Z,1008.79
2019-06-08T01:54:03.535Z,1008.68
2019-06-08T01:55:03.543Z,1008.83
2019-06-08T01:56:03.511Z,1008.71
2019-06-08T01:57:03.496Z,1008.81
2019-06-08T01:58:03.476Z,1008.74
2019-06-08T01:59:03.476Z,1008.79
2019-06-08T02:00:28.736Z,1008.80
2019-06-08T02:01:04.471Z,1008.80
2019-06-08T02:02:03.468Z,1008.83
2019-06-08T02:03:03.443Z,1008.96
2019-06-08T02:04:03.420Z,1008.97
2019-06-08T02:05:03.406Z,1009.04
2019-06-08T02:06:03.449Z,1009.07
2019-06-08T02:07:03.390Z,1009.21
2019-06-08T02:08:03.366Z,1009.38
2019-06-08T02:09:03.370Z,1009.28
2019-06-08T02:10:03.352Z,1009.18
2019-06-08T02:11:03.355Z,1009.40
2019-06-08T02:12:03.328Z,1009.32
2019-06-08T02:13:03.318Z,1009.48
2019-06-08T02:14:03.307Z,1009.32
2019-06-08T02:15:03.302Z,1009.38
2019-06-08T02:16:03.309Z,1009.38
2019-06-08T02:17:03.270Z,1009.45
2019-06-08T02:18:03.254Z,1009.53
2019-06-08T02:19:03.365Z,1009.56
2019-06-08T02:20:03.241Z,1009.51
2019-06-08T02:21:03.253Z,1009.63
2019-06-08T02:22:03.245Z,1009.68
2019-06-08T02:23:03.220Z,1009.71
2019-06-08T02:24:03.198Z,1009.65
2019-06-08T02:25:03.176Z,1009.68
2019-06-08T02:26:03.195Z,1009.65
2019-06-08T02:27:03.160Z,1009.73
2019-06-08T02:28:03.286Z,1009.74
2019-06-08T02:29:03.137Z,1009.81
2019-06-08T02:30:03.125Z,1009.79
2019-06-08T02:31:03.131Z,1009.97
2019-06-08T02:32:03.098Z,1009.91
2019-06-08T02:33:03.094Z,1009.94
2019-06-08T02:34:03.084Z,1010.06
2019-06-08T02:35:03.091Z,1010.11
2019-06-08T02:36:03.086Z,1010.03
2019-06-08T02:37:03.056Z,1010.11
2019-06-08T02:38:03.023Z,1010.25
2019-06-08T02:39:03.024Z,1010.14
2019-06-08T02:40:03.012Z,1010.24
2019-06-08T02:41:03.049Z,1010.26
2019-06-08T02:42:02.986Z,1010.36
2019-06-08T02:43:02.975Z,1010.25
2019-06-08T02:44:02.971Z,1010.33
2019-06-08T02:45:02.964Z,1010.33
2019-06-08T02:46:02.993Z,1010.42
2019-06-08T02:47:02.937Z,1010.48
2019-06-08T02:48:02.935Z,1010.47
2019-06-08T02:49:04.725Z,1010.32
2019-06-08T02:50:02.907Z,1010.37
2019-06-08T02:51:02.909Z,1010.43
2019-06-08T02:52:02.894Z,1010.43
2019-06-08T02:53:02.865Z,1010.45
2019-06-08T02:54:02.866Z,1010.47
2019-06-08T02:55:02.861Z,1010.43
2019-06-08T02:56:02.834Z,1010.42
2019-06-08T02:57:02.854Z,1010.39
2019-06-08T02:58:02.812Z,1010.37
2019-06-08T02:59:02.801Z,1010.42
2019-06-08T03:00:02.793Z,1010.38
2019-06-08T03:01:02.777Z,1010.40
2019-06-08T03:02:02.794Z,1010.51
2019-06-08T03:03:02.757Z,1010.44
2019-06-08T03:04:02.746Z,1010.51
2019-06-08T03:05:02.736Z,1010.58
2019-06-08T03:06:02.723Z,1010.63
2019-06-08T03:07:02.729Z,1010.60
2019-06-08T03:08:02.697Z,1010.59
2019-06-08T03:09:02.679Z,1010.66
2019-06-08T03:10:02.679Z,1010.78
2019-06-08T03:11:02.673Z,1010.84
2019-06-08T03:12:02.691Z,1010.73
2019-06-08T03:13:02.647Z,1010.70
2019-06-08T03:14:02.629Z,1010.74
2019-06-08T03:15:02.630Z,1010.72
2019-06-08T03:16:02.618Z,1010.68
2019-06-08T03:17:02.633Z,1010.60
2019-06-08T03:18:02.593Z,1010.55
2019-06-08T03:19:20.173Z,1010.57
2019-06-08T03:20:03.564Z,1010.59
2019-06-08T03:21:02.589Z,1010.58
2019-06-08T03:22:02.566Z,1010.56
2019-06-08T03:23:02.531Z,1010.62
2019-06-08T03:24:02.509Z,1010.58
2019-06-08T03:25:02.520Z,1010.71
2019-06-08T03:26:02.504Z,1010.54
2019-06-08T03:27:02.503Z,1010.63
2019-06-08T03:28:02.466Z,1010.53
2019-06-08T03:29:02.461Z,1010.55
2019-06-08T03:30:14.971Z,1010.61
2019-06-08T03:31:03.471Z,1010.53
2019-06-08T03:32:02.456Z,1010.55
2019-06-08T03:33:02.413Z,1010.59
2019-06-08T03:34:02.411Z,1010.70
2019-06-08T03:35:02.397Z,1010.53
2019-06-08T03:36:02.407Z,1010.51
2019-06-08T03:37:02.434Z,1010.55
2019-06-08T03:38:02.367Z,1010.57
2019-06-08T03:39:02.349Z,1010.57
2019-06-08T03:40:02.340Z,1010.70
2019-06-08T03:41:02.325Z,1010.73
2019-06-08T03:42:02.354Z,1010.71
2019-06-08T03:43:02.335Z,1010.56
2019-06-08T03:44:02.293Z,1010.70
2019-06-08T03:45:02.288Z,1010.70
2019-06-08T03:46:02.279Z,1010.56
2019-06-08T03:47:02.287Z,1010.36
2019-06-08T03:48:02.269Z,1010.29
2019-06-08T03:49:02.250Z,1010.22
2019-06-08T03:50:02.242Z,1010.39
2019-06-08T03:51:02.218Z,1010.55
2019-06-08T03:52:02.199Z,1010.60
2019-06-08T03:53:02.216Z,1010.50
2019-06-08T03:54:02.187Z,1010.51
2019-06-08T03:55:02.189Z,1010.51
2019-06-08T03:56:02.163Z,1010.62
2019-06-08T03:57:02.161Z,1010.64
2019-06-08T03:58:02.159Z,1010.72
2019-06-08T03:59:02.131Z,1010.66
2019-06-08T04:00:02.144Z,1010.46
2019-06-08T04:01:02.104Z,1010.34
2019-06-08T04:02:02.925Z,1010.36
2019-06-08T04:03:02.100Z,1010.41
2019-06-08T04:04:02.068Z,1010.59
2019-06-08T04:05:02.056Z,1010.54
2019-06-08T04:06:02.054Z,1010.50
2019-06-08T04:07:02.065Z,1010.56
2019-06-08T04:08:02.049Z,1010.60
2019-06-08T04:09:02.029Z,1010.59
2019-06-08T04:10:02.009Z,1010.59
2019-06-08T04:11:01.995Z,1010.73
2019-06-08T04:12:01.975Z,1010.67
2019-06-08T04:13:01.985Z,1010.78
2019-06-08T04:14:01.965Z,1010.80
2019-06-08T04:15:01.958Z,1010.79
2019-06-08T04:16:01.950Z,1010.69
2019-06-08T04:17:01.921Z,1010.61
2019-06-08T04:18:01.929Z,1010.67
2019-06-08T04:19:01.893Z,1010.50
2019-06-08T04:20:10.472Z,1010.45
2019-06-08T04:21:02.875Z,1010.55
2019-06-08T04:22:01.863Z,1010.53
2019-06-08T04:23:01.864Z,1010.56
2019-06-08T04:24:01.838Z,1010.60
2019-06-08T04:25:01.845Z,1010.53
2019-06-08T04:26:01.823Z,1010.51
2019-06-08T04:27:01.824Z,1010.47
2019-06-08T04:28:01.825Z,1010.46
2019-06-08T04:29:01.795Z,1010.56
2019-06-08T04:30:01.784Z,1010.65
2019-06-08T04:31:01.780Z,1010.60
2019-06-08T04:32:01.763Z,1010.58
2019-06-08T04:33:01.772Z,1010.57
2019-06-08T04:34:01.732Z,1010.61
2019-06-08T04:35:01.799Z,1010.81
2019-06-08T04:36:01.711Z,1010.80
2019-06-08T04:37:01.724Z,1010.96
2019-06-08T04:38:01.716Z,1011.03
2019-06-08T04:39:01.681Z,1011.11
2019-06-08T04:40:01.679Z,1011.19
2019-06-08T04:41:01.665Z,1011.37
2019-06-08T04:42:01.644Z,1011.48
2019-06-08T04:43:01.656Z,1011.44
2019-06-08T04:44:01.627Z,1011.47
2019-06-08T04:45:01.618Z,1011.44
2019-06-08T04:46:01.603Z,1011.59
2019-06-08T04:47:01.590Z,1011.51
2019-06-08T04:48:01.644Z,1011.60
2019-06-08T04:49:01.558Z,1011.47
2019-06-08T04:50:20.318Z,1011.33
2019-06-08T04:51:02.550Z,1011.34
2019-06-08T04:52:01.532Z,1011.40
2019-06-08T04:53:01.597Z,1011.40
2019-06-08T04:54:01.516Z,1011.40
2019-06-08T04:55:01.498Z,1011.32
2019-06-08T04:56:01.534Z,1011.57
2019-06-08T04:57:01.478Z,1011.54
2019-06-08T04:58:01.491Z,1011.57
2019-06-08T04:59:01.445Z,1011.71
2019-06-08T05:00:11.113Z,1011.78
2019-06-08T05:01:02.463Z,1011.70
2019-06-08T05:02:01.430Z,1011.60
2019-06-08T05:03:01.466Z,1011.58
2019-06-08T05:04:01.397Z,1011.48
2019-06-08T05:05:01.379Z,1011.70
2019-06-08T05:06:01.385Z,1011.66
2019-06-08T05:07:01.432Z,1011.56
2019-06-08T05:08:01.385Z,1011.61
2019-06-08T05:09:01.341Z,1011.74
2019-06-08T05:10:01.334Z,1011.64
2019-06-08T05:11:01.320Z,1011.69
2019-06-08T05:12:01.305Z,1011.84
2019-06-08T05:13:01.323Z,1011.89
2019-06-08T05:14:01.278Z,1011.96
2019-06-08T05:15:01.271Z,1011.82
2019-06-08T05:16:01.271Z,1012.09
2019-06-08T05:17:01.250Z,1012.09
2019-06-08T05:18:01.322Z,1012.07
2019-06-08T05:19:01.228Z,1012.01
2019-06-08T05:20:01.205Z,1011.94
2019-06-08T05:21:01.201Z,1012.15
2019-06-08T05:22:01.189Z,1012.16
2019-06-08T05:23:01.220Z,1012.16
2019-06-08T05:24:01.175Z,1012.17
2019-06-08T05:25:01.178Z,1012.20
2019-06-08T05:26:01.195Z,1012.15
2019-06-08T05:27:01.133Z,1012.17
2019-06-08T05:28:01.154Z,1012.20
2019-06-08T05:29:01.226Z,1012.23
2019-06-08T05:30:08.087Z,1012.28
2019-06-08T05:31:02.111Z,1012.25
2019-06-08T05:32:01.089Z,1012.22
2019-06-08T05:33:01.086Z,1012.38
2019-06-08T05:34:01.079Z,1012.36
2019-06-08T05:35:01.049Z,1012.31
2019-06-08T05:36:01.037Z,1012.25
2019-06-08T05:37:01.021Z,1012.18
2019-06-08T05:38:01.011Z,1012.17
2019-06-08T05:39:01.034Z,1012.17
2019-06-08T05:40:00.993Z,1012.26
2019-06-08T05:41:00.977Z,1012.11
2019-06-08T05:42:00.967Z,1012.19
2019-06-08T05:43:00.959Z,1012.07
2019-06-08T05:44:00.959Z,1012.03
2019-06-08T05:45:00.953Z,1012.13
2019-06-08T05:46:00.935Z,1012.16
2019-06-08T05:47:00.910Z,1012.18
2019-06-08T05:48:00.924Z,1012.22
2019-06-08T05:49:00.928Z,1012.20
2019-06-08T05:50:00.885Z,1012.32
2019-06-08T05:51:04.091Z,1012.22
2019-06-08T05:52:00.865Z,1012.37
2019-06-08T05:53:00.834Z,1012.43
2019-06-08T05:54:02.956Z,1012.43
2019-06-08T05:55:00.824Z,1012.62
2019-06-08T05:56:00.808Z,1012.54
2019-06-08T05:57:00.817Z,1012.51
2019-06-08T05:58:00.824Z,1012.65
2019-06-08T05:59:00.811Z,1012.55
2019-06-08T06:00:08.424Z,1012.58
2019-06-08T06:01:01.762Z,1012.58
2019-06-08T06:02:00.739Z,1012.37
2019-06-08T06:03:00.729Z,1012.32
2019-06-08T06:04:00.735Z,1012.40
2019-06-08T06:05:00.706Z,1012.27
2019-06-08T06:06:00.699Z,1012.37
2019-06-08T06:07:00.688Z,1012.53
2019-06-08T06:08:00.673Z,1012.44
2019-06-08T06:09:00.680Z,1012.61
2019-06-08T06:10:00.668Z,1012.50
2019-06-08T06:11:00.647Z,1012.63
2019-06-08T06:12:00.626Z,1012.48
2019-06-08T06:13:00.662Z,1012.59
2019-06-08T06:14:00.608Z,1012.48
2019-06-08T06:15:00.615Z,1012.51
2019-06-08T06:16:00.584Z,1012.49
2019-06-08T06:17:00.578Z,1012.62
2019-06-08T06:18:00.566Z,1012.60
2019-06-08T06:19:00.555Z,1012.52
2019-06-08T06:20:00.570Z,1012.52
2019-06-08T06:21:10.375Z,1012.53
2019-06-08T06:22:01.512Z,1012.44
2019-06-08T06:23:00.506Z,1012.39
2019-06-08T06:24:00.493Z,1012.53
2019-06-08T06:25:00.503Z,1012.41
2019-06-08T06:26:00.464Z,1012.37
2019-06-08T06:27:00.486Z,1012.48
2019-06-08T06:28:00.463Z,1012.59
2019-06-08T06:29:00.450Z,1012.55
2019-06-08T06:30:00.454Z,1012.66
2019-06-08T06:31:00.433Z,1012.63
2019-06-08T06:32:00.420Z,1012.61
2019-06-08T06:33:00.458Z,1012.64
2019-06-08T06:34:00.414Z,1012.72
2019-06-08T06:35:00.396Z,1012.63
2019-06-08T06:36:00.363Z,1012.76
2019-06-08T06:37:00.368Z,1012.71
2019-06-08T06:38:00.338Z,1012.75
2019-06-08T06:39:00.330Z,1012.79
2019-06-08T06:40:00.345Z,1012.81
2019-06-08T06:41:00.299Z,1012.73
2019-06-08T06:42:00.297Z,1012.87
2019-06-08T06:43:00.304Z,1012.76
2019-06-08T06:44:00.286Z,1012.75
2019-06-08T06:45:00.261Z,1012.72
2019-06-08T06:46:00.281Z,1012.74
2019-06-08T06:47:00.234Z,1012.80
2019-06-08T06:48:00.247Z,1012.67
2019-06-08T06:49:00.215Z,1012.54
2019-06-08T06:50:00.206Z,1012.54
2019-06-08T06:51:00.222Z,1012.63
2019-06-08T06:52:00.188Z,1012.69
2019-06-08T06:53:00.171Z,1012.82
2019-06-08T06:54:00.152Z,1012.90
2019-06-08T06:55:00.147Z,1012.89
2019-06-08T06:56:00.152Z,1012.93
2019-06-08T06:57:00.164Z,1012.83
2019-06-08T06:58:00.108Z,1012.98
2019-06-08T06:59:00.106Z,1012.91
2019-06-08T07:00:00.084Z,1012.95
2019-06-08T07:01:00.136Z,1012.97
2019-06-08T07:02:00.072Z,1013.10
2019-06-08T07:03:00.067Z,1013.31
2019-06-08T07:04:00.045Z,1013.30
2019-06-08T07:05:00.046Z,1013.30
2019-06-08T07:06:00.039Z,1013.12
2019-06-08T07:07:00.018Z,1013.21
2019-06-08T07:07:59.998Z,1013.26
2019-06-08T07:08:59.989Z,1013.23
2019-06-08T07:09:59.990Z,1013.28
2019-06-08T07:10:59.993Z,1013.36
2019-06-08T07:11:59.953Z,1013.43
2019-06-08T07:12:59.955Z,1013.41
2019-06-08T07:13:59.937Z,1013.30
2019-06-08T07:14:59.924Z,1013.26
2019-06-08T07:16:16.885Z,1013.30
2019-06-08T07:17:00.899Z,1013.41
2019-06-08T07:17:59.888Z,1013.42
2019-06-08T07:18:59.882Z,1013.55
2019-06-08T07:19:59.870Z,1013.52
2019-06-08T07:20:59.889Z,1013.57
2019-06-08T07:21:59.847Z,1013.42
2019-06-08T07:22:59.827Z,1013.41
2019-06-08T07:23:59.819Z,1013.41
2019-06-08T07:24:59.797Z,1013.32
2019-06-08T07:25:59.821Z,1013.44
2019-06-08T07:26:59.793Z,1013.46
2019-06-08T07:27:59.770Z,1013.32
2019-06-08T07:28:59.761Z,1013.34
2019-06-08T07:29:59.763Z,1013.31
2019-06-08T07:30:59.775Z,1013.45
2019-06-08T07:31:59.724Z,1013.34
2019-06-08T07:32:59.756Z,1013.52
2019-06-08T07:33:59.996Z,1013.47
2019-06-08T07:34:59.700Z,1013.48
2019-06-08T07:35:59.904Z,1013.57
2019-06-08T07:36:59.693Z,1013.65
2019-06-08T07:37:59.872Z,1013.57
2019-06-08T07:38:59.724Z,1013.67
2019-06-08T07:40:00.151Z,1013.63
2019-06-08T07:41:01.654Z,1013.61
2019-06-08T07:42:00.010Z,1013.76
2019-06-08T07:43:00.429Z,1013.78
2019-06-08T07:43:59.593Z,1013.85
2019-06-08T07:45:00.401Z,1013.96
2019-06-08T07:45:59.579Z,1013.98
2019-06-08T07:47:00.103Z,1013.90
2019-06-08T07:48:00.587Z,1013.75
2019-06-08T07:48:59.548Z,1013.84
2019-06-08T07:49:59.638Z,1013.98
2019-06-08T07:50:59.513Z,1013.83
2019-06-08T07:52:09.743Z,1013.99
2019-06-08T07:53:00.496Z,1014.11
2019-06-08T07:53:59.920Z,1014.02
2019-06-08T07:54:59.485Z,1013.96
2019-06-08T07:55:59.851Z,1014.07
2019-06-08T07:56:59.478Z,1013.90
2019-06-08T07:58:00.358Z,1013.93
2019-06-08T07:58:59.426Z,1013.96
2019-06-08T08:00:00.187Z,1013.88
2019-06-08T08:01:07.520Z,1013.87
2019-06-08T08:02:00.422Z,1013.84
2019-06-08T08:02:59.388Z,1013.85
2019-06-08T08:03:59.377Z,1013.91
2019-06-08T08:04:59.367Z,1014.02
2019-06-08T08:06:00.008Z,1014.09
2019-06-08T08:06:59.363Z,1013.93
2019-06-08T08:07:59.324Z,1013.99
2019-06-08T08:08:59.326Z,1014.00
2019-06-08T08:09:59.320Z,1014.05
2019-06-08T08:11:00.043Z,1014.33
2019-06-08T08:11:59.681Z,1014.22
2019-06-08T08:12:59.285Z,1014.27
2019-06-08T08:13:59.283Z,1014.42
2019-06-08T08:14:59.739Z,1014.26
2019-06-08T08:16:00.719Z,1014.38
2019-06-08T08:16:59.312Z,1014.27
2019-06-08T08:17:59.646Z,1014.37
2019-06-08T08:18:59.726Z,1014.41
2019-06-08T08:19:59.415Z,1014.39
2019-06-08T08:21:09.272Z,1014.43
2019-06-08T08:22:10.710Z,1014.32
2019-06-08T08:23:05.558Z,1014.33
2019-06-08T08:24:01.582Z,1014.42
2019-06-08T08:25:04.216Z,1014.35
2019-06-08T08:26:01.787Z,1014.34
2019-06-08T08:27:02.062Z,1014.36
2019-06-08T08:28:00.667Z,1014.21
2019-06-08T08:29:02.539Z,1014.27
2019-06-08T08:30:01.713Z,1014.14
2019-06-08T08:31:01.693Z,1014.19
2019-06-08T08:32:01.771Z,1014.10
2019-06-08T08:33:01.659Z,1014.12
2019-06-08T08:34:05.322Z,1014.13
2019-06-08T08:35:02.650Z,1014.12
2019-06-08T08:36:01.724Z,1014.10
2019-06-08T08:37:06.012Z,1014.17
2019-06-08T08:38:03.901Z,1014.01
2019-06-08T08:39:01.012Z,1014.18
2019-06-08T08:40:01.363Z,1014.22
2019-06-08T08:41:06.228Z,1014.22
2019-06-08T08:42:04.790Z,1014.17
2019-06-08T08:43:01.542Z,1014.27
2019-06-08T08:44:04.203Z,1014.24
2019-06-08T08:45:05.023Z,1014.16
2019-06-08T08:46:01.822Z,1014.25
2019-06-08T08:47:01.374Z,1014.15
2019-06-08T08:48:14.407Z,1014.26
2019-06-08T08:49:08.925Z,1014.17
2019-06-08T08:50:01.868Z,1014.11
2019-06-08T08:51:01.435Z,1014.11
2019-06-08T08:52:00.221Z,1014.07
2019-06-08T08:53:00.625Z,1013.96
2019-06-08T08:54:03.938Z,1013.98
2019-06-08T08:55:00.926Z,1013.99
2019-06-08T08:56:02.097Z,1014.09
2019-06-08T08:57:03.384Z,1013.98
2019-06-08T08:58:01.777Z,1013.86
2019-06-08T08:59:00.907Z,1013.92
2019-06-08T09:00:03.494Z,1013.82
2019-06-08T09:01:02.107Z,1013.76
2019-06-08T09:02:01.053Z,1013.61
2019-06-08T09:03:13.142Z,1013.50
2019-06-08T09:04:03.295Z,1013.57
2019-06-08T09:05:03.066Z,1013.52
2019-06-08T09:06:01.510Z,1013.36
2019-06-08T09:07:05.227Z,1013.39
2019-06-08T09:08:02.125Z,1013.36
2019-06-08T09:09:01.666Z,1013.37
2019-06-08T09:10:01.823Z,1013.65
2019-06-08T09:11:01.733Z,1013.76
2019-06-08T09:12:02.287Z,1014.01
2019-06-08T09:13:02.934Z,1014.17
2019-06-08T09:14:05.196Z,1014.28
2019-06-08T09:15:01.852Z,1014.39
2019-06-08T09:16:00.867Z,1014.35
2019-06-08T09:17:01.741Z,1014.40
2019-06-08T09:18:00.966Z,1014.55
2019-06-08T09:19:02.374Z,1014.67
2019-06-08T09:20:03.277Z,1014.47
2019-06-08T09:21:02.031Z,1014.70
2019-06-08T09:22:01.202Z,1014.67
2019-06-08T09:23:06.430Z,1014.65
2019-06-08T09:24:03.456Z,1014.63
2019-06-08T09:25:01.269Z,1014.62
2019-06-08T09:26:05.782Z,1014.56
2019-06-08T09:27:02.401Z,1014.67
2019-06-08T09:28:01.257Z,1014.52
2019-06-08T09:28:58.496Z,1014.63
2019-06-08T09:30:00.736Z,1014.62
2019-06-08T09:31:00.657Z,1014.62
2019-06-08T09:32:00.412Z,1014.58
2019-06-08T09:33:00.644Z,1014.59
2019-06-08T09:34:08.529Z,1014.60
2019-06-08T09:35:02.703Z,1014.54
2019-06-08T09:36:02.407Z,1014.72
2019-06-08T09:37:00.112Z,1014.76
2019-06-08T09:38:01.083Z,1014.73
2019-06-08T09:39:00.696Z,1014.79
2019-06-08T09:39:59.014Z,1014.69
2019-06-08T09:41:01.256Z,1014.60
2019-06-08T09:42:01.924Z,1014.63
2019-06-08T09:43:05.471Z,1014.50
2019-06-08T09:44:02.190Z,1014.63
2019-06-08T09:45:02.967Z,1014.44
2019-06-08T09:46:00.561Z,1014.40
2019-06-08T09:47:02.893Z,1014.39
2019-06-08T09:48:01.602Z,1014.58
2019-06-08T09:49:03.684Z,1014.57
2019-06-08T09:50:03.270Z,1014.70
2019-06-08T09:51:01.712Z,1014.69
2019-06-08T09:52:00.343Z,1014.74
2019-06-08T09:53:14.763Z,1014.74
2019-06-08T09:54:02.647Z,1014.85
2019-06-08T09:55:02.302Z,1014.75
2019-06-08T09:56:02.351Z,1014.60
2019-06-08T09:57:02.091Z,1014.56
2019-06-08T09:58:03.955Z,1014.30
2019-06-08T09:59:03.559Z,1014.24
2019-06-08T10:00:02.195Z,1014.38
2019-06-08T10:01:01.209Z,1014.54
2019-06-08T10:02:05.151Z,1014.75
2019-06-08T10:03:02.449Z,1014.75
2019-06-08T10:04:00.820Z,1015.01
2019-06-08T10:05:00.502Z,1015.03
2019-06-08T10:06:01.544Z,1015.13
2019-06-08T10:07:00.558Z,1015.18
2019-06-08T10:08:00.473Z,1015.08
2019-06-08T10:08:58.513Z,1015.10
2019-06-08T10:10:00.361Z,1015.10
2019-06-08T10:11:01.387Z,1015.19
2019-06-08T10:12:01.298Z,1015.19
2019-06-08T10:13:01.319Z,1015.14
2019-06-08T10:14:02.653Z,1015.11
2019-06-08T10:14:58.790Z,1015.26
2019-06-08T10:16:01.939Z,1015.15
2019-06-08T10:17:01.189Z,1015.29
2019-06-08T10:17:58.924Z,1015.05
2019-06-08T10:19:02.304Z,1015.08
2019-06-08T10:20:00.632Z,1015.19
2019-06-08T10:21:00.647Z,1015.09
2019-06-08T10:21:58.838Z,1015.17
2019-06-08T10:23:01.167Z,1014.99
2019-06-08T10:24:01.003Z,1014.95
2019-06-08T10:25:02.160Z,1014.95
2019-06-08T10:26:01.377Z,1015.00
2019-06-08T10:26:59.272Z,1014.98
2019-06-08T10:28:02.818Z,1014.92
2019-06-08T10:29:01.404Z,1015.13
2019-06-08T10:29:59.984Z,1015.16
2019-06-08T10:30:59.641Z,1015.03
2019-06-08T10:31:57.720Z,1014.93
2019-06-08T10:33:00.455Z,1014.90
2019-06-08T10:34:01.528Z,1014.96
2019-06-08T10:35:00.326Z,1014.80
2019-06-08T10:36:01.508Z,1014.97
2019-06-08T10:37:03.430Z,1014.73
2019-06-08T10:38:02.610Z,1014.74
2019-06-08T10:39:01.861Z,1014.53
2019-06-08T10:40:01.921Z,1014.71
2019-06-08T10:41:01.243Z,1014.82
2019-06-08T10:42:01.109Z,1014.74
2019-06-08T10:42:59.827Z,1014.72
2019-06-08T10:43:59.109Z,1014.74
2019-06-08T10:45:02.740Z,1014.76
2019-06-08T10:46:05.145Z,1014.71
2019-06-08T10:47:01.609Z,1014.81
2019-06-08T10:47:59.387Z,1014.88
2019-06-08T10:48:57.537Z,1014.82
2019-06-08T10:50:01.638Z,1014.77
2019-06-08T10:51:01.357Z,1014.77
2019-06-08T10:52:01.603Z,1014.73
2019-06-08T10:53:02.130Z,1014.69
2019-06-08T10:53:59.860Z,1014.72
2019-06-08T10:54:59.782Z,1014.67
2019-06-08T10:55:58.233Z,1014.83
2019-06-08T10:56:59.791Z,1014.85
2019-06-08T10:57:58.435Z,1014.85
2019-06-08T10:59:00.239Z,1014.85
2019-06-08T10:59:57.925Z,1014.85
2019-06-08T11:01:00.168Z,1014.88
2019-06-08T11:02:00.955Z,1014.95
2019-06-08T11:03:01.315Z,1014.98
2019-06-08T11:03:58.413Z,1015.07
2019-06-08T11:04:58.890Z,1014.90
2019-06-08T11:06:00.731Z,1014.87
2019-06-08T11:07:01.044Z,1014.98
2019-06-08T11:07:59.325Z,1014.85
2019-06-08T11:09:00.373Z,1015.11
2019-06-08T11:09:58.707Z,1015.01
2019-06-08T11:10:57.872Z,1014.89
2019-06-08T11:11:58.338Z,1014.77
2019-06-08T11:12:58.218Z,1014.93
2019-06-08T11:14:00.051Z,1014.83
2019-06-08T11:14:58.407Z,1015.03
2019-06-08T11:15:58.645Z,1014.85
2019-06-08T11:16:58.427Z,1015.02
2019-06-08T11:18:01.328Z,1014.91
2019-06-08T11:18:59.047Z,1014.79
2019-06-08T11:20:00.489Z,1014.76
2019-06-08T11:20:59.916Z,1014.77
2019-06-08T11:21:58.053Z,1014.99
2019-06-08T11:22:58.345Z,1014.88
2019-06-08T11:24:07.343Z,1014.78
2019-06-08T11:24:58.875Z,1014.83
2019-06-08T11:25:59.517Z,1014.85
2019-06-08T11:26:59.691Z,1014.75
2019-06-08T11:27:58.674Z,1014.70
2019-06-08T11:28:58.664Z,1014.50
2019-06-08T11:29:57.558Z,1014.50
2019-06-08T11:30:57.071Z,1014.38
2019-06-08T11:31:58.637Z,1014.60
2019-06-08T11:32:57.673Z,1014.74
2019-06-08T11:33:58.888Z,1014.82
2019-06-08T11:34:57.015Z,1014.80
2019-06-08T11:35:58.146Z,1014.63
2019-06-08T11:36:59.643Z,1014.67
2019-06-08T11:37:58.524Z,1014.80
2019-06-08T11:38:59.182Z,1014.84
2019-06-08T11:39:57.662Z,1014.77
2019-06-08T11:40:57.485Z,1014.65
2019-06-08T11:41:58.756Z,1014.60
2019-06-08T11:42:58.580Z,1014.60
2019-06-08T11:43:59.577Z,1014.62
2019-06-08T11:44:58.656Z,1014.56
2019-06-08T11:45:58.404Z,1014.74
2019-06-08T11:46:57.524Z,1014.64
2019-06-08T11:47:58.376Z,1014.63
2019-06-08T11:48:57.682Z,1014.82
2019-06-08T11:49:57.690Z,1014.71
2019-06-08T11:50:58.509Z,1014.58
2019-06-08T11:51:58.352Z,1014.64
2019-06-08T11:53:00.098Z,1014.65
2019-06-08T11:53:59.263Z,1014.92
2019-06-08T11:54:57.373Z,1014.82
2019-06-08T11:55:58.595Z,1014.72
2019-06-08T11:56:57.609Z,1014.88
2019-06-08T11:57:58.583Z,1014.82
2019-06-08T11:58:57.917Z,1014.97
2019-06-08T11:59:58.470Z,1014.94
2019-06-08T12:01:00.674Z,1014.98
2019-06-08T12:01:58.638Z,1015.06
2019-06-08T12:02:58.095Z,1014.93
2019-06-08T12:03:57.982Z,1014.95
2019-06-08T12:04:57.277Z,1014.95